createdAt,value
2022-10-07T00:00:58.475Z,411.88
2022-10-07T00:03:27.009Z,378.55
2022-10-07T00:06:00.601Z,357.98
2022-10-07T00:08:27.306Z,403.67
2022-10-07T00:10:54.033Z,403.92
2022-10-07T00:13:20.603Z,373.13
2022-10-07T00:15:47.275Z,384.33
2022-10-07T00:18:13.881Z,387.00
2022-10-07T00:20:40.821Z,370.42
2022-10-07T00:23:08.083Z,365.15
2022-10-07T00:25:38.169Z,383.90
2022-10-07T00:28:05.557Z,370.77
2022-10-07T00:30:32.663Z,402.85
2022-10-07T00:32:59.365Z,400.30
2022-10-07T00:35:26.107Z,397.98
2022-10-07T00:37:52.777Z,380.52
2022-10-07T00:40:19.392Z,399.70
2022-10-07T00:42:46.877Z,373.83
2022-10-07T00:45:16.903Z,380.83
2022-10-07T00:47:49.891Z,380.45
2022-10-07T00:50:25.862Z,387.98
2022-10-07T00:52:57.676Z,402.70
2022-10-07T00:55:27.419Z,378.50
2022-10-07T00:57:57.263Z,410.70
2022-10-07T01:00:24.170Z,389.65
2022-10-07T01:02:52.021Z,398.10
2022-10-07T01:05:19.255Z,395.67
2022-10-07T01:07:48.297Z,410.95
2022-10-07T01:10:19.927Z,422.58
2022-10-07T01:12:54.225Z,385.20
2022-10-07T01:15:32.619Z,381.10
2022-10-07T01:18:23.605Z,429.25
2022-10-07T01:21:07.502Z,405.02
2022-10-07T01:23:51.545Z,388.95
2022-10-07T01:26:48.317Z,383.55
2022-10-07T01:29:29.542Z,417.30
2022-10-07T01:32:06.728Z,388.75
2022-10-07T01:34:36.066Z,422.35
2022-10-07T01:37:06.695Z,380.17
2022-10-07T01:39:42.200Z,366.52
2022-10-07T01:42:09.939Z,368.90
2022-10-07T01:44:37.166Z,391.38
2022-10-07T01:47:04.549Z,401.13
2022-10-07T01:49:31.179Z,385.98
2022-10-07T01:52:33.036Z,381.88
2022-10-07T01:55:02.801Z,381.52
2022-10-07T01:57:38.593Z,412.17
2022-10-07T02:00:07.870Z,369.33
2022-10-07T02:03:08.187Z,411.33
2022-10-07T02:05:46.333Z,370.80
2022-10-07T02:08:42.388Z,425.80
2022-10-07T02:11:16.733Z,402.20
2022-10-07T02:14:11.963Z,388.47
2022-10-07T02:16:41.594Z,419.40
2022-10-07T02:19:36.625Z,387.33
2022-10-07T02:22:04.203Z,393.90
2022-10-07T02:24:35.637Z,395.63
2022-10-07T02:27:16.253Z,396.17
2022-10-07T02:29:48.599Z,385.73
2022-10-07T02:32:21.245Z,382.83
2022-10-07T02:34:54.832Z,401.93
2022-10-07T02:37:29.794Z,390.05
2022-10-07T02:39:57.591Z,400.63
2022-10-07T02:42:42.040Z,428.52
2022-10-07T02:45:29.453Z,396.35
2022-10-07T02:48:09.414Z,402.05
2022-10-07T02:50:39.990Z,391.00
2022-10-07T02:53:10.991Z,381.60
2022-10-07T02:55:37.850Z,413.55
2022-10-07T02:58:07.862Z,392.70
2022-10-07T03:00:39.587Z,391.52
2022-10-07T03:03:08.079Z,400.95
2022-10-07T03:05:50.382Z,412.38
2022-10-07T03:08:17.427Z,403.63
2022-10-07T03:10:45.439Z,414.67
2022-10-07T03:13:15.767Z,399.98
2022-10-07T03:15:47.744Z,400.67
2022-10-07T03:18:29.208Z,401.25
2022-10-07T03:21:04.909Z,396.98
2022-10-07T03:23:31.708Z,395.53
2022-10-07T03:26:00.817Z,398.47
2022-10-07T03:28:35.299Z,404.73
2022-10-07T03:31:07.767Z,405.42
2022-10-07T03:33:37.344Z,414.48
2022-10-07T03:36:05.855Z,398.48
2022-10-07T03:38:33.039Z,420.03
2022-10-07T03:41:01.878Z,401.65
2022-10-07T03:43:28.844Z,409.63
2022-10-07T03:45:56.881Z,416.65
2022-10-07T03:48:23.704Z,421.15
2022-10-07T03:51:00.535Z,423.23
2022-10-07T03:53:29.760Z,417.93
2022-10-07T03:55:58.360Z,409.47
2022-10-07T03:58:25.774Z,409.73
2022-10-07T04:00:52.406Z,410.20
2022-10-07T04:03:19.626Z,380.95
2022-10-07T04:05:59.670Z,396.85
2022-10-07T04:08:29.191Z,388.60
2022-10-07T04:10:59.714Z,384.58
2022-10-07T04:13:27.024Z,398.58
2022-10-07T04:15:54.381Z,394.02
2022-10-07T04:18:23.009Z,402.63
2022-10-07T04:20:50.831Z,378.40
2022-10-07T04:23:17.496Z,374.53
2022-10-07T04:25:46.728Z,381.48
2022-10-07T04:28:20.294Z,374.30
2022-10-07T04:30:53.877Z,389.08
2022-10-07T04:33:26.341Z,383.17
2022-10-07T04:35:55.225Z,386.38
2022-10-07T04:38:26.296Z,382.02
2022-10-07T04:40:55.782Z,383.60
2022-10-07T04:43:23.532Z,380.98
2022-10-07T04:46:04.790Z,385.42
2022-10-07T04:48:33.975Z,384.52
2022-10-07T04:51:02.671Z,379.88
2022-10-07T04:53:29.445Z,379.02
2022-10-07T04:55:56.411Z,359.83
2022-10-07T04:58:24.467Z,377.00
2022-10-07T05:00:53.821Z,384.13
2022-10-07T05:03:25.337Z,389.90
2022-10-07T05:05:55.079Z,364.58
2022-10-07T05:08:24.486Z,367.13
2022-10-07T05:11:00.780Z,368.90
2022-10-07T05:13:31.091Z,376.13
2022-10-07T05:16:00.694Z,351.65
2022-10-07T05:18:31.303Z,362.98
2022-10-07T05:21:10.124Z,374.48
2022-10-07T05:23:49.816Z,363.33
2022-10-07T05:26:22.167Z,374.92
2022-10-07T05:28:54.448Z,366.10
2022-10-07T05:31:28.077Z,376.88
2022-10-07T05:33:59.727Z,361.73
2022-10-07T05:36:27.153Z,360.52
2022-10-07T05:38:59.606Z,368.30
2022-10-07T05:41:44.947Z,372.50
2022-10-07T05:44:13.840Z,368.67
2022-10-07T05:46:41.415Z,362.02
2022-10-07T05:49:08.512Z,383.48
2022-10-07T05:51:36.307Z,389.13
2022-10-07T05:54:03.201Z,388.55
2022-10-07T05:56:38.075Z,353.05
2022-10-07T05:59:04.975Z,361.05
2022-10-07T06:01:32.430Z,378.30
2022-10-07T06:04:03.721Z,382.40
2022-10-07T06:06:34.351Z,368.63
2022-10-07T06:09:22.036Z,353.67
2022-10-07T06:12:10.328Z,371.77
2022-10-07T06:14:38.595Z,369.27
2022-10-07T06:17:06.800Z,374.02
2022-10-07T06:19:36.426Z,384.55
2022-10-07T06:22:03.650Z,361.05
2022-10-07T06:24:33.714Z,354.23
2022-10-07T06:27:04.135Z,358.60
2022-10-07T06:29:31.597Z,377.33
2022-10-07T06:31:58.966Z,349.55
2022-10-07T06:34:29.635Z,351.27
2022-10-07T06:36:56.430Z,345.63
2022-10-07T06:39:23.856Z,368.75
2022-10-07T06:41:54.366Z,366.17
2022-10-07T06:44:59.549Z,360.13
2022-10-07T06:47:26.523Z,319.23
2022-10-07T06:49:53.177Z,345.83
2022-10-07T06:52:19.796Z,359.08
2022-10-07T06:54:47.375Z,373.02
2022-10-07T06:57:40.388Z,358.42
2022-10-07T07:00:01.312Z,343.83
2022-10-07T07:02:30.584Z,368.70
2022-10-07T07:04:58.473Z,348.58
2022-10-07T07:07:26.436Z,371.38
2022-10-07T07:09:53.784Z,362.60
2022-10-07T07:12:25.485Z,344.40
2022-10-07T07:14:54.283Z,347.60
2022-10-07T07:17:21.473Z,366.13
2022-10-07T07:19:48.083Z,380.13
2022-10-07T07:22:15.572Z,335.13
2022-10-07T07:24:43.108Z,303.08
2022-10-07T07:27:09.746Z,314.73
2022-10-07T07:29:37.008Z,291.17
2022-10-07T07:32:04.505Z,292.52
2022-10-07T07:34:36.303Z,299.52
2022-10-07T07:37:03.057Z,289.73
2022-10-07T07:39:36.203Z,289.40
2022-10-07T07:42:08.598Z,283.40
2022-10-07T07:44:36.884Z,289.10
2022-10-07T07:47:06.231Z,325.20
2022-10-07T07:49:34.037Z,345.90
2022-10-07T07:52:01.061Z,345.50
2022-10-07T07:54:34.014Z,286.33
2022-10-07T07:57:04.101Z,262.53
2022-10-07T07:59:33.051Z,320.05
2022-10-07T08:02:00.721Z,284.88
2022-10-07T08:04:28.631Z,319.25
2022-10-07T08:06:56.292Z,328.85
2022-10-07T08:09:24.383Z,279.93
2022-10-07T08:11:52.629Z,295.65
2022-10-07T08:14:19.314Z,310.98
2022-10-07T08:16:50.342Z,252.23
2022-10-07T08:19:18.087Z,282.55
2022-10-07T08:21:45.169Z,299.90
2022-10-07T08:24:17.189Z,355.90
2022-10-07T08:26:44.410Z,312.73
2022-10-07T08:29:13.228Z,268.05
2022-10-07T08:31:42.318Z,330.13
2022-10-07T08:34:10.270Z,310.13
2022-10-07T08:36:37.474Z,325.52
2022-10-07T08:39:05.338Z,286.57
2022-10-07T08:41:35.386Z,290.40
2022-10-07T08:44:21.020Z,289.77
2022-10-07T08:47:09.488Z,315.53
2022-10-07T08:49:39.100Z,297.73
2022-10-07T08:52:23.417Z,245.00
2022-10-07T08:54:50.091Z,303.42
2022-10-07T08:57:46.471Z,237.80
2022-10-07T09:00:18.580Z,240.63
2022-10-07T09:03:05.502Z,233.27
2022-10-07T09:05:39.015Z,251.68
2022-10-07T09:08:21.357Z,234.30
2022-10-07T09:10:50.208Z,248.80
2022-10-07T09:13:24.689Z,224.55
2022-10-07T09:16:27.074Z,217.05
2022-10-07T09:18:57.694Z,261.93
2022-10-07T09:21:29.189Z,299.25
2022-10-07T09:24:01.553Z,272.95
2022-10-07T09:26:28.216Z,303.75
2022-10-07T09:28:54.850Z,269.05
2022-10-07T09:31:23.797Z,284.02
2022-10-07T09:33:52.906Z,330.23
2022-10-07T09:36:20.136Z,249.48
2022-10-07T09:38:49.754Z,303.90
2022-10-07T09:41:32.143Z,310.17
2022-10-07T09:44:03.998Z,279.33
2022-10-07T09:46:47.991Z,226.55
2022-10-07T09:49:31.587Z,220.85
2022-10-07T09:52:05.678Z,209.30
2022-10-07T09:54:36.233Z,222.52
2022-10-07T09:57:05.695Z,204.48
2022-10-07T09:59:35.253Z,192.95
2022-10-07T10:02:24.502Z,238.80
2022-10-07T10:04:56.324Z,223.30
2022-10-07T10:07:33.678Z,193.07
2022-10-07T10:10:06.138Z,194.05
2022-10-07T10:12:40.638Z,198.63
2022-10-07T10:15:23.186Z,226.27
2022-10-07T10:17:51.039Z,184.43
2022-10-07T10:20:23.652Z,178.40
2022-10-07T10:22:51.478Z,185.27
2022-10-07T10:25:46.109Z,165.03
2022-10-07T10:28:30.148Z,159.98
2022-10-07T10:31:08.332Z,166.70
2022-10-07T10:33:49.021Z,163.13
2022-10-07T10:36:27.059Z,182.35
2022-10-07T10:39:04.041Z,156.20
2022-10-07T10:41:50.581Z,159.35
2022-10-07T10:44:38.442Z,147.57
2022-10-07T10:47:24.889Z,161.10
2022-10-07T10:50:06.644Z,164.68
2022-10-07T10:52:45.827Z,162.85
2022-10-07T10:55:36.887Z,149.82
2022-10-07T10:58:10.309Z,151.98
2022-10-07T11:01:04.897Z,154.65
2022-10-07T11:03:46.202Z,133.38
2022-10-07T11:06:17.059Z,173.25
2022-10-07T11:08:47.281Z,142.80
2022-10-07T11:11:18.845Z,124.53
2022-10-07T11:13:54.316Z,141.67
2022-10-07T11:16:27.111Z,144.20
2022-10-07T11:19:02.231Z,148.55
2022-10-07T11:21:41.163Z,144.95
2022-10-07T11:24:26.615Z,144.15
2022-10-07T11:27:14.923Z,134.52
2022-10-07T11:29:49.345Z,53.05
2022-10-07T11:33:12.770Z,39.78
2022-10-07T11:35:51.717Z,31.08
2022-10-07T11:38:22.489Z,35.50
2022-10-07T11:40:56.086Z,30.90
2022-10-07T11:43:34.671Z,30.27
2022-10-07T11:46:28.916Z,24.42
2022-10-07T11:49:20.221Z,29.40
2022-10-07T11:51:52.452Z,20.30
2022-10-07T11:54:22.730Z,16.02
2022-10-07T11:56:56.130Z,22.90
2022-10-07T11:59:46.413Z,20.10
2022-10-07T12:02:28.289Z,18.77
2022-10-07T12:04:59.698Z,22.53
2022-10-07T12:07:35.374Z,17.25
2022-10-07T12:10:01.961Z,18.05
2022-10-07T12:12:44.633Z,15.97
2022-10-07T12:15:31.575Z,19.25
2022-10-07T12:18:07.320Z,15.73
2022-10-07T12:20:44.777Z,16.38
2022-10-07T12:23:18.160Z,15.90
2022-10-07T12:25:47.727Z,15.73
2022-10-07T12:28:30.614Z,17.42
2022-10-07T12:31:23.439Z,19.50
2022-10-07T12:34:10.315Z,17.15
2022-10-07T12:36:41.982Z,15.95
2022-10-07T12:39:12.241Z,14.73
2022-10-07T12:41:40.511Z,17.48
2022-10-07T12:44:32.151Z,18.58
2022-10-07T12:47:13.883Z,19.15
2022-10-07T12:49:48.946Z,18.15
2022-10-07T12:52:21.052Z,24.17
2022-10-07T12:55:08.430Z,16.25
2022-10-07T12:57:38.021Z,18.52
2022-10-07T13:00:07.999Z,16.98
2022-10-07T13:03:03.342Z,19.35
2022-10-07T13:05:48.333Z,15.73
2022-10-07T13:09:02.673Z,15.07
2022-10-07T13:11:55.060Z,18.25
2022-10-07T13:14:48.784Z,16.65
2022-10-07T13:17:27.830Z,20.65
2022-10-07T13:20:14.223Z,20.30
2022-10-07T13:22:48.896Z,17.60
2022-10-07T13:25:20.186Z,22.33
2022-10-07T13:27:53.777Z,36.05
2022-10-07T13:30:36.206Z,19.00
2022-10-07T13:33:25.264Z,51.53
2022-10-07T13:36:05.122Z,15.57
2022-10-07T13:38:32.108Z,19.27
2022-10-07T13:41:07.802Z,21.57
2022-10-07T13:43:37.242Z,48.30
2022-10-07T13:46:07.653Z,20.42
2022-10-07T13:48:40.739Z,22.27
2022-10-07T13:51:20.662Z,27.87
2022-10-07T13:53:54.092Z,17.50
2022-10-07T13:56:26.624Z,21.15
2022-10-07T13:58:55.477Z,45.92
2022-10-07T14:01:27.453Z,22.80
2022-10-07T14:04:11.944Z,79.53
2022-10-07T14:06:57.438Z,123.10
2022-10-07T14:09:32.815Z,62.08
2022-10-07T14:12:09.062Z,123.30
2022-10-07T14:14:38.517Z,141.45
2022-10-07T14:17:42.132Z,120.90
2022-10-07T14:20:44.840Z,36.75
2022-10-07T14:23:25.832Z,128.07
2022-10-07T14:26:06.781Z,136.60
2022-10-07T14:28:35.645Z,134.38
2022-10-07T14:31:27.212Z,105.80
2022-10-07T14:34:15.334Z,156.52
2022-10-07T14:37:04.496Z,170.88
2022-10-07T14:39:39.309Z,122.93
2022-10-07T14:42:11.588Z,150.15
2022-10-07T14:44:38.225Z,122.83
2022-10-07T14:47:19.054Z,114.32
2022-10-07T14:49:45.711Z,139.00
2022-10-07T14:52:18.453Z,164.40
2022-10-07T14:54:45.393Z,135.98
2022-10-07T14:57:12.019Z,143.65
2022-10-07T14:59:38.694Z,137.07
2022-10-07T15:02:05.397Z,136.93
2022-10-07T15:04:32.151Z,268.23
2022-10-07T15:06:58.910Z,190.63
2022-10-07T15:09:25.484Z,278.30
2022-10-07T15:11:54.955Z,210.45
2022-10-07T15:14:21.663Z,304.57
2022-10-07T15:16:48.444Z,294.60
2022-10-07T15:19:17.552Z,213.30
2022-10-07T15:21:44.516Z,260.77
2022-10-07T15:24:13.612Z,225.82
2022-10-07T15:26:41.317Z,281.70
2022-10-07T15:29:08.485Z,215.80
2022-10-07T15:31:35.150Z,207.65
2022-10-07T15:34:01.930Z,201.07
2022-10-07T15:36:29.597Z,183.45
2022-10-07T15:39:02.030Z,181.00
2022-10-07T15:41:31.582Z,227.07
2022-10-07T15:44:02.244Z,172.15
2022-10-07T15:46:28.985Z,160.93
2022-10-07T15:48:56.427Z,163.53
2022-10-07T15:51:25.680Z,172.13
2022-10-07T15:53:55.238Z,163.13
2022-10-07T15:56:21.940Z,193.15
2022-10-07T15:58:48.569Z,169.40
2022-10-07T16:01:15.550Z,166.02
2022-10-07T16:03:45.305Z,248.95
2022-10-07T16:06:24.160Z,205.77
2022-10-07T16:08:54.035Z,190.93
2022-10-07T16:11:21.336Z,220.50
2022-10-07T16:13:48.795Z,265.52
2022-10-07T16:16:26.507Z,246.43
2022-10-07T16:18:56.546Z,325.55
2022-10-07T16:21:27.908Z,282.77
2022-10-07T16:24:21.366Z,270.67
2022-10-07T16:26:53.136Z,303.25
2022-10-07T16:29:42.472Z,302.35
2022-10-07T16:32:10.943Z,330.98
2022-10-07T16:34:39.438Z,335.00
2022-10-07T16:37:06.296Z,288.90
2022-10-07T16:39:33.025Z,274.65
2022-10-07T16:42:00.052Z,246.95
2022-10-07T17:02:04.939Z,253.70
2022-10-07T17:04:32.003Z,269.38
2022-10-07T17:06:58.636Z,227.90
2022-10-07T17:09:25.298Z,268.88
2022-10-07T17:11:52.025Z,239.07
2022-10-07T17:14:21.022Z,232.53
2022-10-07T17:16:53.337Z,259.73
2022-10-07T17:19:22.807Z,276.45
2022-10-07T17:21:50.488Z,228.15
2022-10-07T17:24:19.303Z,310.10
2022-10-07T17:26:46.450Z,235.97
2022-10-07T17:29:18.178Z,266.83
2022-10-07T17:31:48.368Z,259.60
2022-10-07T17:34:16.167Z,294.08
2022-10-07T17:36:47.781Z,252.45
2022-10-07T17:39:15.280Z,242.27
2022-10-07T17:41:42.120Z,224.15
2022-10-07T17:44:11.726Z,246.15
2022-10-07T17:46:39.764Z,258.73
2022-10-07T17:49:08.327Z,276.48
2022-10-07T17:51:36.924Z,242.35
2022-10-07T17:54:05.786Z,267.27
2022-10-07T17:56:34.218Z,226.80
2022-10-07T17:59:01.891Z,220.57
2022-10-07T18:01:31.167Z,230.48
2022-10-07T18:03:59.809Z,212.63
2022-10-07T18:06:28.943Z,223.85
2022-10-07T18:08:56.002Z,222.57
2022-10-07T18:11:22.609Z,225.00
2022-10-07T18:14:07.680Z,232.07
2022-10-07T18:16:35.348Z,220.88
2022-10-07T18:19:02.455Z,244.77
2022-10-07T18:21:31.418Z,252.73
2022-10-07T18:24:01.534Z,222.70
2022-10-07T18:26:28.973Z,269.83
2022-10-07T18:28:57.478Z,218.75
2022-10-07T18:31:24.353Z,224.32
2022-10-07T18:33:51.135Z,222.70
2022-10-07T18:36:19.245Z,224.23
2022-10-07T18:38:46.386Z,238.57
2022-10-07T18:41:15.236Z,272.48
2022-10-07T18:43:43.531Z,285.80
2022-10-07T18:46:13.583Z,242.00
2022-10-07T18:48:42.072Z,257.30
2022-10-07T18:51:10.948Z,235.25
2022-10-07T18:53:39.936Z,251.77
2022-10-07T18:56:13.136Z,279.25
2022-10-07T18:58:42.718Z,288.50
2022-10-07T19:01:18.311Z,243.73
2022-10-07T19:03:45.802Z,290.73
2022-10-07T19:06:19.192Z,245.15
2022-10-07T19:08:46.287Z,277.65
2022-10-07T19:11:20.471Z,303.63
2022-10-07T19:13:49.952Z,315.73
2022-10-07T19:16:22.816Z,272.10
2022-10-07T19:18:51.884Z,277.40
2022-10-07T19:21:20.072Z,277.30
2022-10-07T19:23:52.185Z,294.90
2022-10-07T19:26:21.949Z,265.85
2022-10-07T19:28:49.869Z,259.95
2022-10-07T19:31:29.084Z,315.02
2022-10-07T19:33:58.199Z,266.30
2022-10-07T19:36:25.361Z,299.75
2022-10-07T19:38:56.353Z,255.40
2022-10-07T19:41:26.168Z,278.23
2022-10-07T19:43:53.098Z,244.53
2022-10-07T19:46:22.361Z,259.70
2022-10-07T19:48:49.795Z,306.83
2022-10-07T19:51:19.363Z,259.93
2022-10-07T19:53:47.996Z,281.20
2022-10-07T19:56:17.474Z,304.17
2022-10-07T19:58:48.926Z,303.80
2022-10-07T20:01:21.031Z,277.42
2022-10-07T20:03:49.241Z,243.83
2022-10-07T20:06:18.938Z,292.65
2022-10-07T20:08:46.667Z,248.65
2022-10-07T20:11:14.591Z,248.93
2022-10-07T20:13:42.511Z,318.10
2022-10-07T20:16:24.321Z,313.35
2022-10-07T20:18:58.354Z,262.42
2022-10-07T20:21:24.964Z,271.48
2022-10-07T20:23:53.852Z,294.02
2022-10-07T20:26:26.877Z,276.05
2022-10-07T20:28:56.162Z,298.83
2022-10-07T20:31:25.358Z,279.25
2022-10-07T20:33:55.637Z,276.08
2022-10-07T20:36:36.735Z,272.42
2022-10-07T20:39:32.363Z,255.27
2022-10-07T20:42:18.091Z,251.20
2022-10-07T20:44:46.529Z,268.33
2022-10-07T20:47:13.226Z,269.60
2022-10-07T20:49:41.933Z,291.45
2022-10-07T20:52:17.887Z,270.98
2022-10-07T20:54:45.624Z,268.60
2022-10-07T20:57:15.802Z,267.25
2022-10-07T20:59:43.041Z,263.20
2022-10-07T21:02:11.372Z,246.70
2022-10-07T21:04:40.469Z,269.03
2022-10-07T21:07:09.549Z,258.27
2022-10-07T21:09:36.652Z,267.58
2022-10-07T21:12:09.796Z,291.48
2022-10-07T21:14:37.309Z,257.17
2022-10-07T21:17:04.910Z,273.38
2022-10-07T21:19:32.922Z,272.55
2022-10-07T21:21:59.836Z,262.85
2022-10-07T21:24:26.484Z,254.95
2022-10-07T21:26:53.106Z,263.83
2022-10-07T21:29:19.887Z,292.63
2022-10-07T21:31:46.848Z,275.95
2022-10-07T21:34:13.438Z,273.52
2022-10-07T21:36:54.029Z,311.35
2022-10-07T21:39:20.825Z,253.07
2022-10-07T21:41:49.049Z,317.10
2022-10-07T21:44:16.042Z,276.93
2022-10-07T21:46:43.877Z,293.33
2022-10-07T21:49:10.544Z,312.30
2022-10-07T21:51:38.039Z,268.65
2022-10-07T21:54:04.995Z,301.20
2022-10-07T21:56:33.069Z,299.58
2022-10-07T21:59:01.523Z,303.57
2022-10-07T22:01:28.646Z,286.63
2022-10-07T22:04:01.340Z,269.15
2022-10-07T22:06:49.039Z,277.15
2022-10-07T22:09:18.424Z,288.98
2022-10-07T22:11:45.050Z,281.63
2022-10-07T22:14:13.110Z,274.35
2022-10-07T22:16:40.276Z,264.67
2022-10-07T22:19:07.035Z,264.92
2022-10-07T22:21:35.881Z,287.40
2022-10-07T22:24:05.067Z,298.20
2022-10-07T22:26:34.226Z,285.20
2022-10-07T22:29:01.135Z,295.37
2022-10-07T22:31:28.005Z,288.07
2022-10-07T22:33:57.864Z,292.50
2022-10-07T22:36:25.535Z,306.73
2022-10-07T22:38:55.584Z,323.98
2022-10-07T22:41:24.057Z,299.30
2022-10-07T22:43:52.609Z,289.77
2022-10-07T22:46:26.473Z,299.90
2022-10-07T22:48:56.231Z,298.10
2022-10-07T22:51:23.419Z,300.88
2022-10-07T22:53:53.695Z,297.38
2022-10-07T22:56:21.942Z,292.45
2022-10-07T22:59:00.175Z,317.52
2022-10-07T23:01:29.589Z,300.03
2022-10-07T23:04:02.911Z,346.58
2022-10-07T23:06:34.735Z,300.17
2022-10-07T23:09:03.088Z,302.60
2022-10-07T23:11:30.299Z,298.00
2022-10-07T23:13:58.442Z,303.38
2022-10-07T23:16:29.358Z,301.63
2022-10-07T23:18:56.841Z,293.23
2022-10-07T23:21:25.772Z,302.90
2022-10-07T23:24:01.731Z,303.00
2022-10-07T23:26:31.704Z,330.70
2022-10-07T23:28:59.915Z,297.38
2022-10-07T23:31:28.351Z,301.45
2022-10-07T23:33:56.242Z,301.40
2022-10-07T23:36:23.888Z,299.80
2022-10-07T23:38:51.484Z,297.00
2022-10-07T23:41:20.990Z,316.73
2022-10-07T23:43:51.964Z,289.33
2022-10-07T23:46:21.790Z,311.80
2022-10-07T23:48:49.404Z,304.65
2022-10-07T23:51:19.029Z,283.63
2022-10-07T23:53:46.004Z,283.37
2022-10-07T23:56:13.196Z,298.23
2022-10-07T23:58:40.150Z,291.00
